createdAt,value
2023-01-19T00:00:30.097Z,95.72
2023-01-19T00:02:56.579Z,95.71
2023-01-19T00:05:22.966Z,95.57
2023-01-19T00:07:49.344Z,95.72
2023-01-19T00:10:16.099Z,95.66
2023-01-19T00:12:42.491Z,95.78
2023-01-19T00:15:09.473Z,95.64
2023-01-19T00:17:35.970Z,95.73
2023-01-19T00:20:03.828Z,95.69
2023-01-19T00:22:30.213Z,95.84
2023-01-19T00:24:56.562Z,95.61
2023-01-19T00:27:23.367Z,95.74
2023-01-19T00:29:49.798Z,95.76
2023-01-19T00:32:17.849Z,95.74
2023-01-19T00:34:49.480Z,95.04
2023-01-19T00:37:17.128Z,94.71
2023-01-19T00:39:43.830Z,94.43
2023-01-19T00:42:32.124Z,94.33
2023-01-19T00:44:58.485Z,94.21
2023-01-19T00:47:25.291Z,94.42
2023-01-19T00:49:52.773Z,94.26
2023-01-19T00:52:19.607Z,94.57
2023-01-19T00:54:46.174Z,94.39
2023-01-19T00:57:12.707Z,94.60
2023-01-19T00:59:39.105Z,94.89
2023-01-19T01:02:05.592Z,95.00
2023-01-19T01:04:32.410Z,95.09
2023-01-19T01:06:58.799Z,95.32
2023-01-19T01:09:25.252Z,95.29
2023-01-19T01:11:51.601Z,95.65
2023-01-19T01:14:18.196Z,95.49
2023-01-19T01:16:44.809Z,95.24
2023-01-19T01:19:11.209Z,95.56
2023-01-19T01:21:37.617Z,95.42
2023-01-19T01:24:04.608Z,95.60
2023-01-19T01:26:30.978Z,95.69
2023-01-19T01:28:57.343Z,95.36
2023-01-19T01:31:23.968Z,95.29
2023-01-19T01:33:50.446Z,95.25
2023-01-19T01:36:18.960Z,95.04
2023-01-19T01:38:45.487Z,95.08
2023-01-19T01:41:12.215Z,95.15
2023-01-19T01:43:50.299Z,95.03
2023-01-19T01:46:18.138Z,95.45
2023-01-19T01:49:00.880Z,95.11
2023-01-19T01:51:40.744Z,95.33
2023-01-19T01:54:33.512Z,95.56
2023-01-19T01:57:06.538Z,95.81
2023-01-19T01:59:39.206Z,96.16
2023-01-19T02:02:27.807Z,95.84
2023-01-19T02:04:57.742Z,95.54
2023-01-19T02:07:51.818Z,96.06
2023-01-19T02:10:37.168Z,96.07
2023-01-19T02:13:21.812Z,96.19
2023-01-19T02:15:56.006Z,96.23
2023-01-19T02:18:24.751Z,96.27
2023-01-19T02:20:58.912Z,96.23
2023-01-19T02:23:46.151Z,96.53
2023-01-19T02:26:20.196Z,96.36
2023-01-19T02:28:52.667Z,96.60
2023-01-19T02:31:19.721Z,96.61
2023-01-19T02:33:46.274Z,97.01
2023-01-19T02:36:15.170Z,96.59
2023-01-19T02:38:43.924Z,96.79
2023-01-19T02:41:13.093Z,96.71
2023-01-19T02:43:41.839Z,96.82
2023-01-19T02:46:08.757Z,96.83
2023-01-19T02:48:35.972Z,97.04
2023-01-19T02:51:09.286Z,97.01
2023-01-19T02:53:48.407Z,96.97
2023-01-19T02:56:49.856Z,96.75
2023-01-19T02:59:19.159Z,96.94
2023-01-19T03:02:19.425Z,96.82
2023-01-19T03:05:00.708Z,96.75
2023-01-19T03:08:05.003Z,96.67
2023-01-19T03:10:57.834Z,96.66
2023-01-19T03:13:41.812Z,96.97
2023-01-19T03:16:48.703Z,96.67
2023-01-19T03:19:23.750Z,96.76
2023-01-19T03:21:57.836Z,96.54
2023-01-19T03:24:28.845Z,96.45
2023-01-19T03:27:09.280Z,96.55
2023-01-19T03:29:38.966Z,96.60
2023-01-19T03:32:13.087Z,96.82
2023-01-19T03:34:41.901Z,96.63
2023-01-19T03:37:11.379Z,96.75
2023-01-19T03:39:37.859Z,96.40
2023-01-19T03:42:08.323Z,96.11
2023-01-19T03:44:37.794Z,96.25
2023-01-19T03:47:07.248Z,96.38
2023-01-19T03:49:35.089Z,96.30
2023-01-19T03:52:01.485Z,96.48
2023-01-19T03:54:28.278Z,96.20
2023-01-19T03:56:54.705Z,96.38
2023-01-19T03:59:21.854Z,96.18
2023-01-19T04:01:48.620Z,96.05
2023-01-19T04:04:15.555Z,96.37
2023-01-19T04:06:42.560Z,96.45
2023-01-19T04:09:08.921Z,96.07
2023-01-19T04:11:35.392Z,95.96
2023-01-19T04:14:01.780Z,96.22
2023-01-19T04:16:29.079Z,95.89
2023-01-19T04:18:55.672Z,95.80
2023-01-19T04:21:22.022Z,95.78
2023-01-19T04:23:49.897Z,95.86
2023-01-19T04:26:16.504Z,95.65
2023-01-19T04:28:42.862Z,95.65
2023-01-19T04:31:09.255Z,95.45
2023-01-19T04:33:35.674Z,95.27
2023-01-19T04:36:04.215Z,95.34
2023-01-19T04:38:30.767Z,95.45
2023-01-19T04:40:57.118Z,95.47
2023-01-19T04:43:24.079Z,95.30
2023-01-19T04:45:50.591Z,95.43
2023-01-19T04:48:18.483Z,95.38
2023-01-19T04:50:45.114Z,95.60
2023-01-19T04:53:13.618Z,95.47
2023-01-19T04:55:40.210Z,95.41
2023-01-19T04:58:06.567Z,95.71
2023-01-19T05:00:33.773Z,95.44
2023-01-19T05:03:01.484Z,95.46
2023-01-19T05:05:28.285Z,95.62
2023-01-19T05:07:54.894Z,95.44
2023-01-19T05:10:21.364Z,95.30
2023-01-19T05:12:47.832Z,95.47
2023-01-19T05:15:14.210Z,95.60
2023-01-19T05:17:40.700Z,95.60
2023-01-19T05:20:09.442Z,95.59
2023-01-19T05:22:35.826Z,95.72
2023-01-19T05:25:02.414Z,95.62
2023-01-19T05:27:28.774Z,95.70
2023-01-19T05:29:55.154Z,96.00
2023-01-19T05:32:21.508Z,95.85
2023-01-19T05:34:47.897Z,95.74
2023-01-19T05:37:14.302Z,95.65
2023-01-19T05:39:40.661Z,95.97
2023-01-19T05:42:07.254Z,95.85
2023-01-19T05:44:33.653Z,95.69
2023-01-19T05:47:00.136Z,95.96
2023-01-19T05:49:26.528Z,95.77
2023-01-19T05:51:52.879Z,96.02
2023-01-19T05:54:19.244Z,96.23
2023-01-19T05:56:45.755Z,96.30
2023-01-19T05:59:13.056Z,96.25
2023-01-19T06:01:40.331Z,96.29
2023-01-19T06:04:07.051Z,96.34
2023-01-19T06:06:33.416Z,96.14
2023-01-19T06:08:59.786Z,96.33
2023-01-19T06:11:26.244Z,96.43
2023-01-19T06:13:52.927Z,96.34
2023-01-19T06:16:19.482Z,96.27
2023-01-19T06:18:45.962Z,96.02
2023-01-19T06:21:14.238Z,95.89
2023-01-19T06:23:40.963Z,95.73
2023-01-19T06:26:07.443Z,96.16
2023-01-19T06:28:33.876Z,96.13
2023-01-19T06:31:01.036Z,96.21
2023-01-19T06:33:28.067Z,95.88
2023-01-19T06:35:55.165Z,96.41
2023-01-19T06:38:21.569Z,96.35
2023-01-19T06:40:58.900Z,96.31
2023-01-19T06:43:26.122Z,96.30
2023-01-19T06:45:52.761Z,96.31
2023-01-19T06:48:19.694Z,96.35
2023-01-19T06:50:46.884Z,96.45
2023-01-19T06:53:13.799Z,96.40
2023-01-19T06:55:40.256Z,96.33
2023-01-19T06:58:06.622Z,96.32
2023-01-19T07:00:32.986Z,96.47
2023-01-19T07:02:59.706Z,96.44
2023-01-19T07:05:26.483Z,96.62
2023-01-19T07:07:56.689Z,96.72
2023-01-19T07:10:24.574Z,96.65
2023-01-19T07:13:01.541Z,96.87
2023-01-19T07:15:53.146Z,96.43
2023-01-19T07:18:19.536Z,96.53
2023-01-19T07:20:46.905Z,96.03
2023-01-19T07:23:33.044Z,96.19
2023-01-19T07:26:05.063Z,96.04
2023-01-19T07:28:32.914Z,95.61
2023-01-19T07:31:08.949Z,95.60
2023-01-19T07:33:38.578Z,95.27
2023-01-19T07:36:05.266Z,95.67
2023-01-19T07:38:44.978Z,95.18
2023-01-19T07:41:13.835Z,95.66
2023-01-19T07:43:40.221Z,95.88
2023-01-19T07:46:17.804Z,95.92
2023-01-19T07:48:57.492Z,95.90
2023-01-19T07:51:23.860Z,95.86
2023-01-19T07:54:14.265Z,95.92
2023-01-19T07:56:40.726Z,95.93
2023-01-19T07:59:10.720Z,96.02
2023-01-19T08:01:37.781Z,96.10
2023-01-19T08:04:04.672Z,96.05
2023-01-19T08:06:37.138Z,95.61
2023-01-19T08:09:05.581Z,96.01
2023-01-19T08:11:32.130Z,95.58
2023-01-19T08:13:58.787Z,95.59
2023-01-19T08:16:25.487Z,95.76
2023-01-19T08:18:51.841Z,95.83
2023-01-19T08:21:18.224Z,95.80
2023-01-19T08:23:44.607Z,95.67
2023-01-19T08:26:36.338Z,95.60
2023-01-19T08:29:05.231Z,95.40
2023-01-19T08:31:31.775Z,95.91
2023-01-19T08:33:58.635Z,95.49
2023-01-19T08:36:25.171Z,95.78
2023-01-19T08:38:51.943Z,95.43
2023-01-19T08:41:18.342Z,95.62
2023-01-19T08:43:45.454Z,95.45
2023-01-19T08:46:12.322Z,95.35
2023-01-19T08:48:40.013Z,95.40
2023-01-19T08:51:06.521Z,95.41
2023-01-19T08:53:33.121Z,95.76
2023-01-19T08:56:02.490Z,95.39
2023-01-19T08:58:29.130Z,95.65
2023-01-19T09:00:56.071Z,95.90
2023-01-19T09:03:22.913Z,96.44
2023-01-19T09:05:50.393Z,96.38
2023-01-19T09:08:16.846Z,95.55
2023-01-19T09:10:48.311Z,94.93
2023-01-19T09:13:15.375Z,94.78
2023-01-19T09:15:51.231Z,94.87
2023-01-19T09:18:20.300Z,94.83
2023-01-19T09:20:48.704Z,95.32
2023-01-19T09:23:18.683Z,95.22
2023-01-19T09:25:47.237Z,95.25
2023-01-19T09:28:16.228Z,94.98
2023-01-19T09:30:51.596Z,95.29
2023-01-19T09:33:19.802Z,95.03
2023-01-19T09:35:48.304Z,94.77
2023-01-19T09:38:16.802Z,94.96
2023-01-19T09:40:54.472Z,94.78
2023-01-19T09:43:45.553Z,94.47
2023-01-19T09:46:21.630Z,94.47
2023-01-19T09:48:52.468Z,94.08
2023-01-19T09:51:32.353Z,94.40
2023-01-19T09:54:18.161Z,94.68
2023-01-19T09:56:51.991Z,94.29
2023-01-19T09:59:29.616Z,94.24
2023-01-19T10:02:31.814Z,94.15
2023-01-19T10:05:05.394Z,93.85
2023-01-19T10:08:09.616Z,93.69
2023-01-19T10:10:37.581Z,93.49
2023-01-19T10:13:29.005Z,93.63
2023-01-19T10:16:34.928Z,93.01
2023-01-19T10:19:25.697Z,93.01
2023-01-19T10:21:59.685Z,91.20
2023-01-19T10:24:33.258Z,89.35
2023-01-19T10:26:59.943Z,88.08
2023-01-19T10:29:38.609Z,86.15
2023-01-19T10:32:10.125Z,85.36
2023-01-19T10:34:36.754Z,84.59
2023-01-19T10:37:15.680Z,81.76
2023-01-19T10:39:42.711Z,82.33
2023-01-19T10:42:13.083Z,83.62
2023-01-19T10:44:39.638Z,83.14
2023-01-19T10:47:21.802Z,83.39
2023-01-19T10:49:48.920Z,83.42
2023-01-19T10:52:36.827Z,84.58
2023-01-19T10:55:07.059Z,84.91
2023-01-19T10:57:55.771Z,84.99
2023-01-19T11:00:37.834Z,83.30
2023-01-19T11:03:24.325Z,81.42
2023-01-19T11:06:27.394Z,78.68
2023-01-19T11:09:10.445Z,72.58
2023-01-19T11:11:43.701Z,68.87
2023-01-19T11:14:13.980Z,64.64
2023-01-19T11:16:44.931Z,66.12
2023-01-19T11:19:26.514Z,69.45
2023-01-19T11:22:07.424Z,66.80
2023-01-19T11:24:33.791Z,64.04
2023-01-19T11:27:03.599Z,62.08
2023-01-19T11:29:30.511Z,64.04
2023-01-19T11:32:10.275Z,66.84
2023-01-19T11:34:39.179Z,69.73
2023-01-19T11:37:27.448Z,72.35
2023-01-19T11:39:57.433Z,73.62
2023-01-19T11:42:25.318Z,75.61
2023-01-19T11:44:57.754Z,76.37
2023-01-19T11:47:34.102Z,78.02
2023-01-19T11:50:15.191Z,78.64
2023-01-19T11:53:00.145Z,79.15
2023-01-19T11:55:36.517Z,80.50
2023-01-19T11:58:04.584Z,81.72
2023-01-19T12:00:39.719Z,81.35
2023-01-19T12:03:23.109Z,81.57
2023-01-19T12:05:52.769Z,82.05
2023-01-19T12:08:27.031Z,82.50
2023-01-19T12:10:57.609Z,82.69
2023-01-19T12:13:26.307Z,80.51
2023-01-19T12:16:15.889Z,79.17
2023-01-19T12:18:47.423Z,80.06
2023-01-19T12:21:13.870Z,80.23
2023-01-19T12:24:18.029Z,79.70
2023-01-19T12:27:13.541Z,79.22
2023-01-19T12:29:41.294Z,79.69
2023-01-19T12:32:13.928Z,79.22
2023-01-19T12:34:47.852Z,80.32
2023-01-19T12:37:39.496Z,80.12
2023-01-19T12:40:27.808Z,80.74
2023-01-19T12:43:05.904Z,80.31
2023-01-19T12:45:34.771Z,77.09
2023-01-19T12:48:02.627Z,75.75
2023-01-19T12:50:36.001Z,74.37
2023-01-19T12:53:03.632Z,72.75
2023-01-19T12:55:33.251Z,73.47
2023-01-19T12:58:06.124Z,73.30
2023-01-19T13:00:41.694Z,74.03
2023-01-19T13:03:17.337Z,75.44
2023-01-19T13:05:43.689Z,74.76
2023-01-19T13:08:10.000Z,72.88
2023-01-19T13:11:10.524Z,74.73
2023-01-19T13:13:42.316Z,72.85
2023-01-19T13:16:17.933Z,74.91
2023-01-19T13:18:53.890Z,74.97
2023-01-19T13:21:30.083Z,75.69
2023-01-19T13:23:59.639Z,74.31
2023-01-19T13:26:32.750Z,73.61
2023-01-19T13:29:07.809Z,72.78
2023-01-19T13:31:36.517Z,74.85
2023-01-19T13:34:05.320Z,74.59
2023-01-19T13:36:35.364Z,72.88
2023-01-19T13:39:05.005Z,73.48
2023-01-19T13:41:37.860Z,73.97
2023-01-19T13:44:18.432Z,74.63
2023-01-19T13:46:46.675Z,74.81
2023-01-19T13:49:19.890Z,76.24
2023-01-19T13:51:47.885Z,75.34
2023-01-19T13:54:17.593Z,75.69
2023-01-19T13:56:50.191Z,75.48
2023-01-19T13:59:16.618Z,75.81
2023-01-19T14:01:45.804Z,76.71
2023-01-19T14:04:32.144Z,76.81
2023-01-19T14:07:02.674Z,76.76
2023-01-19T14:09:29.123Z,76.81
2023-01-19T14:12:17.512Z,77.01
2023-01-19T14:14:47.260Z,77.08
2023-01-19T14:17:26.288Z,76.72
2023-01-19T14:19:55.559Z,77.84
2023-01-19T14:22:36.461Z,77.33
2023-01-19T14:25:27.053Z,78.63
2023-01-19T14:28:36.000Z,78.86
2023-01-19T14:31:23.264Z,78.29
2023-01-19T14:33:52.882Z,78.61
2023-01-19T14:36:27.250Z,78.71
2023-01-19T14:38:56.282Z,79.07
2023-01-19T14:41:47.852Z,79.20
2023-01-19T14:44:31.809Z,77.86
2023-01-19T14:46:59.621Z,78.42
2023-01-19T14:49:31.501Z,79.48
2023-01-19T14:51:58.497Z,79.26
2023-01-19T14:54:31.632Z,78.38
2023-01-19T14:56:57.996Z,77.56
2023-01-19T14:59:24.707Z,78.60
2023-01-19T15:01:51.242Z,78.60
2023-01-19T15:04:17.797Z,80.32
2023-01-19T15:06:45.837Z,80.31
2023-01-19T15:09:13.880Z,80.49
2023-01-19T15:11:41.105Z,80.69
2023-01-19T15:14:13.259Z,80.39
2023-01-19T15:16:40.346Z,81.02
2023-01-19T15:19:15.857Z,81.42
2023-01-19T15:21:42.767Z,81.48
2023-01-19T15:24:10.596Z,81.30
2023-01-19T15:26:40.024Z,81.52
2023-01-19T15:29:20.054Z,81.40
2023-01-19T15:31:46.492Z,81.48
2023-01-19T15:34:13.474Z,81.87
2023-01-19T15:36:40.349Z,81.88
2023-01-19T15:39:06.722Z,81.81
2023-01-19T15:41:33.279Z,81.51
2023-01-19T15:43:59.659Z,82.11
2023-01-19T15:46:26.310Z,82.24
2023-01-19T15:48:53.505Z,82.12
2023-01-19T15:51:22.367Z,81.92
2023-01-19T15:53:49.602Z,82.13
2023-01-19T15:56:24.601Z,82.18
2023-01-19T15:58:52.150Z,81.79
2023-01-19T16:01:24.770Z,82.11
2023-01-19T16:03:51.332Z,82.56
2023-01-19T16:06:18.159Z,82.73
2023-01-19T16:08:45.173Z,82.94
2023-01-19T16:11:13.895Z,82.99
2023-01-19T16:13:40.292Z,83.43
2023-01-19T16:16:15.898Z,83.16
2023-01-19T16:18:42.306Z,83.53
2023-01-19T16:21:08.671Z,83.35
2023-01-19T16:23:35.058Z,83.19
2023-01-19T16:26:04.972Z,83.16
2023-01-19T16:28:31.655Z,83.54
2023-01-19T16:30:58.046Z,83.83
2023-01-19T16:33:24.401Z,84.00
2023-01-19T16:35:51.147Z,84.78
2023-01-19T16:38:17.655Z,84.73
2023-01-19T16:40:45.667Z,84.79
2023-01-19T16:43:13.155Z,84.76
2023-01-19T16:46:23.015Z,85.09
2023-01-19T16:48:50.839Z,85.25
2023-01-19T16:51:17.664Z,85.59
2023-01-19T16:53:44.095Z,85.54
2023-01-19T16:56:12.979Z,85.67
2023-01-19T16:58:40.406Z,85.89
2023-01-19T17:01:19.891Z,85.61
2023-01-19T17:03:46.805Z,85.74
2023-01-19T17:06:15.534Z,85.99
2023-01-19T17:08:41.988Z,85.56
2023-01-19T17:11:26.645Z,86.04
2023-01-19T17:13:55.377Z,86.41
2023-01-19T17:16:23.104Z,86.07
2023-01-19T17:18:49.979Z,86.18
2023-01-19T17:21:17.920Z,86.62
2023-01-19T17:23:45.825Z,86.16
2023-01-19T17:26:12.224Z,86.15
2023-01-19T17:28:38.723Z,86.38
2023-01-19T17:31:09.100Z,86.09
2023-01-19T17:33:35.580Z,86.72
2023-01-19T17:36:12.635Z,86.37
2023-01-19T17:38:39.800Z,86.43
2023-01-19T17:41:14.738Z,86.67
2023-01-19T17:43:50.307Z,86.71
2023-01-19T17:46:18.105Z,86.55
2023-01-19T17:48:44.913Z,86.85
2023-01-19T17:51:23.225Z,87.21
2023-01-19T17:53:50.868Z,86.87
2023-01-19T17:56:25.131Z,86.86
2023-01-19T17:58:59.195Z,86.57
2023-01-19T18:01:40.515Z,86.74
2023-01-19T18:04:11.161Z,86.73
2023-01-19T18:06:47.191Z,86.77
2023-01-19T18:09:32.072Z,86.50
2023-01-19T18:11:58.513Z,86.69
2023-01-19T18:14:30.029Z,86.56
2023-01-19T18:16:56.613Z,87.05
2023-01-19T18:19:40.483Z,86.70
2023-01-19T18:22:08.934Z,87.32
2023-01-19T18:24:35.373Z,87.17
2023-01-19T18:27:06.800Z,86.85
2023-01-19T18:29:33.208Z,87.21
2023-01-19T18:32:10.004Z,87.58
2023-01-19T18:34:37.587Z,87.59
2023-01-19T18:37:03.995Z,87.99
2023-01-19T18:39:32.559Z,88.11
2023-01-19T18:42:00.194Z,88.07
2023-01-19T18:44:28.633Z,88.35
2023-01-19T18:46:56.670Z,88.47
2023-01-19T18:49:23.125Z,88.09
2023-01-19T18:51:51.623Z,88.24
2023-01-19T18:54:18.245Z,88.53
2023-01-19T18:56:44.643Z,88.51
2023-01-19T18:59:11.041Z,88.75
2023-01-19T19:01:41.694Z,88.33
2023-01-19T19:04:08.409Z,88.64
2023-01-19T19:06:41.820Z,88.26
2023-01-19T19:09:08.978Z,88.48
2023-01-19T19:11:35.624Z,88.37
2023-01-19T19:14:02.627Z,88.62
2023-01-19T19:16:30.190Z,88.42
2023-01-19T19:18:56.838Z,88.73
2023-01-19T19:21:25.428Z,88.81
2023-01-19T19:23:57.278Z,88.89
2023-01-19T19:26:25.055Z,88.78
2023-01-19T19:28:51.406Z,88.94
2023-01-19T19:31:20.750Z,88.73
2023-01-19T19:33:48.528Z,88.96
2023-01-19T19:36:15.015Z,89.13
2023-01-19T19:38:42.838Z,89.31
2023-01-19T19:41:12.254Z,89.38
2023-01-19T19:43:39.006Z,89.05
2023-01-19T19:46:08.131Z,89.30
2023-01-19T19:48:36.694Z,89.29
2023-01-19T19:51:18.581Z,89.17
2023-01-19T19:53:51.783Z,89.15
2023-01-19T19:56:21.102Z,88.75
2023-01-19T19:58:48.248Z,89.25
2023-01-19T20:01:19.252Z,89.27
2023-01-19T20:03:46.171Z,88.92
2023-01-19T20:06:20.828Z,89.50
2023-01-19T20:08:51.499Z,89.24
2023-01-19T20:11:21.598Z,89.40
2023-01-19T20:13:47.936Z,89.68
2023-01-19T20:16:16.852Z,90.06
2023-01-19T20:18:48.389Z,90.12
2023-01-19T20:21:38.102Z,90.40
2023-01-19T20:24:12.679Z,90.57
2023-01-19T20:26:42.085Z,90.47
2023-01-19T20:29:10.636Z,90.75
2023-01-19T20:31:41.940Z,90.33
2023-01-19T20:34:10.505Z,90.57
2023-01-19T20:36:37.937Z,90.84
2023-01-19T20:39:09.523Z,91.07
2023-01-19T20:41:43.136Z,90.89
2023-01-19T20:44:11.384Z,91.10
2023-01-19T20:46:37.757Z,90.87
2023-01-19T20:49:04.590Z,91.05
2023-01-19T20:51:30.989Z,91.00
2023-01-19T20:53:57.355Z,91.16
2023-01-19T20:56:23.855Z,91.57
2023-01-19T20:58:51.247Z,91.26
2023-01-19T21:01:24.929Z,91.13
2023-01-19T21:03:51.820Z,91.62
2023-01-19T21:06:21.280Z,91.96
2023-01-19T21:08:51.243Z,91.78
2023-01-19T21:11:23.837Z,91.96
2023-01-19T21:13:55.588Z,92.31
2023-01-19T21:16:34.267Z,91.80
2023-01-19T21:19:00.637Z,91.94
2023-01-19T21:21:31.734Z,92.09
2023-01-19T21:24:02.541Z,92.47
2023-01-19T21:26:33.217Z,92.64
2023-01-19T21:29:14.679Z,92.34
2023-01-19T21:31:42.015Z,92.34
2023-01-19T21:34:09.132Z,92.42
2023-01-19T21:36:35.539Z,92.03
2023-01-19T21:39:01.951Z,92.48
2023-01-19T21:41:30.021Z,92.36
2023-01-19T21:43:56.544Z,92.33
2023-01-19T21:46:29.432Z,91.96
2023-01-19T21:48:57.925Z,91.98
2023-01-19T21:51:24.338Z,92.64
2023-01-19T21:53:55.992Z,92.35
2023-01-19T21:56:22.984Z,92.60
2023-01-19T21:58:49.321Z,92.24
2023-01-19T22:01:16.010Z,92.58
2023-01-19T22:03:42.866Z,92.57
2023-01-19T22:06:12.012Z,92.33
2023-01-19T22:08:46.505Z,92.38
2023-01-19T22:11:15.655Z,92.67
2023-01-19T22:13:46.678Z,92.32
2023-01-19T22:16:15.772Z,92.58
2023-01-19T22:18:44.848Z,92.43
2023-01-19T22:21:20.084Z,92.67
2023-01-19T22:23:49.942Z,92.95
2023-01-19T22:26:16.550Z,92.92
2023-01-19T22:29:11.863Z,93.17
2023-01-19T22:31:45.676Z,92.70
2023-01-19T22:34:13.451Z,92.97
2023-01-19T22:36:39.883Z,93.29
2023-01-19T22:39:08.792Z,93.06
2023-01-19T22:41:44.812Z,92.85
2023-01-19T22:44:14.916Z,93.30
2023-01-19T22:46:41.973Z,93.67
2023-01-19T22:49:10.473Z,93.71
2023-01-19T22:51:36.889Z,93.68
2023-01-19T22:54:23.084Z,93.88
2023-01-19T22:56:49.625Z,93.42
2023-01-19T22:59:15.985Z,93.54
2023-01-19T23:01:49.258Z,93.59
2023-01-19T23:04:15.941Z,93.72
2023-01-19T23:06:51.672Z,93.32
2023-01-19T23:09:18.588Z,93.55
2023-01-19T23:11:51.113Z,93.43
2023-01-19T23:14:46.212Z,93.19
2023-01-19T23:17:12.706Z,93.39
2023-01-19T23:19:51.450Z,93.17
2023-01-19T23:22:17.807Z,93.57
2023-01-19T23:24:45.192Z,93.35
2023-01-19T23:27:11.935Z,93.54
2023-01-19T23:29:38.294Z,93.58
2023-01-19T23:32:13.050Z,93.28
2023-01-19T23:34:41.498Z,93.56
2023-01-19T23:37:26.345Z,93.50
2023-01-19T23:40:00.960Z,93.49
2023-01-19T23:42:27.420Z,93.22
2023-01-19T23:45:00.966Z,93.54
2023-01-19T23:47:30.953Z,93.19
2023-01-19T23:50:00.467Z,93.47
2023-01-19T23:52:30.482Z,93.09
2023-01-19T23:54:57.125Z,93.12
2023-01-19T23:57:23.815Z,93.34
